createdAt,value
2022-09-18T00:01:39.691Z,11.14
2022-09-18T00:04:10.529Z,11.15
2022-09-18T00:06:39.961Z,11.09
2022-09-18T00:09:14.522Z,11.04
2022-09-18T00:11:46.323Z,11.02
2022-09-18T00:14:17.233Z,11.02
2022-09-18T00:16:45.352Z,11.00
2022-09-18T00:19:14.022Z,11.01
2022-09-18T00:21:44.642Z,11.00
2022-09-18T00:24:13.585Z,10.99
2022-09-18T00:26:41.504Z,10.99
2022-09-18T00:29:11.026Z,10.99
2022-09-18T00:31:39.475Z,10.93
2022-09-18T00:34:11.838Z,10.94
2022-09-18T00:36:40.153Z,10.94
2022-09-18T00:39:08.806Z,10.92
2022-09-18T00:41:40.592Z,10.90
2022-09-18T00:44:33.147Z,10.90
2022-09-18T00:47:09.776Z,10.85
2022-09-18T00:49:59.087Z,10.84
2022-09-18T00:52:32.954Z,10.82
2022-09-18T00:55:08.890Z,10.84
2022-09-18T00:57:41.731Z,10.89
2022-09-18T01:00:13.039Z,10.90
2022-09-18T01:02:44.940Z,10.83
2022-09-18T01:05:16.500Z,10.81
2022-09-18T01:08:07.912Z,10.82
2022-09-18T01:11:04.657Z,10.82
2022-09-18T01:13:51.876Z,10.82
2022-09-18T01:16:45.096Z,10.76
2022-09-18T01:19:47.241Z,10.75
2022-09-18T01:22:18.205Z,10.75
2022-09-18T01:24:53.951Z,10.68
2022-09-18T01:27:24.690Z,10.64
2022-09-18T01:30:04.864Z,10.57
2022-09-18T01:32:42.990Z,10.55
2022-09-18T01:35:40.650Z,10.45
2022-09-18T01:38:22.978Z,10.40
2022-09-18T01:40:53.587Z,10.29
2022-09-18T01:43:24.441Z,10.31
2022-09-18T01:45:55.225Z,10.30
2022-09-18T01:48:32.322Z,10.27
2022-09-18T01:51:14.522Z,10.30
2022-09-18T01:53:46.916Z,10.32
2022-09-18T01:56:22.708Z,10.31
2022-09-18T01:58:55.527Z,10.34
2022-09-18T02:01:29.804Z,10.35
2022-09-18T02:04:04.733Z,10.36
2022-09-18T02:06:41.989Z,10.33
2022-09-18T02:09:12.026Z,10.33
2022-09-18T02:11:45.502Z,10.29
2022-09-18T02:14:25.859Z,10.20
2022-09-18T02:17:31.189Z,10.12
2022-09-18T02:20:10.300Z,10.10
2022-09-18T02:22:40.964Z,10.06
2022-09-18T02:25:12.308Z,10.07
2022-09-18T02:27:42.520Z,10.07
2022-09-18T02:30:11.936Z,10.04
2022-09-18T02:32:41.063Z,9.97
2022-09-18T02:35:11.161Z,9.98
2022-09-18T02:37:50.308Z,9.91
2022-09-18T02:40:42.875Z,9.94
2022-09-18T02:43:57.554Z,9.93
2022-09-18T02:46:45.126Z,9.96
2022-09-18T02:49:42.355Z,9.99
2022-09-18T02:52:20.237Z,9.99
2022-09-18T02:54:56.233Z,10.02
2022-09-18T02:57:37.901Z,10.01
2022-09-18T03:00:12.822Z,9.98
2022-09-18T03:02:41.886Z,9.98
2022-09-18T03:05:11.027Z,10.02
2022-09-18T03:07:49.641Z,10.04
2022-09-18T03:10:17.772Z,10.04
2022-09-18T03:12:45.700Z,10.06
2022-09-18T03:15:13.720Z,10.09
2022-09-18T03:17:41.946Z,10.10
2022-09-18T03:20:10.037Z,10.12
2022-09-18T03:22:38.029Z,10.08
2022-09-18T03:25:06.873Z,10.07
2022-09-18T03:27:35.148Z,10.07
2022-09-18T03:30:03.835Z,10.10
2022-09-18T03:32:33.735Z,10.11
2022-09-18T03:35:01.611Z,10.11
2022-09-18T03:37:29.993Z,10.15
2022-09-18T03:39:59.563Z,10.17
2022-09-18T03:42:27.675Z,10.20
2022-09-18T03:44:57.688Z,10.24
2022-09-18T03:47:31.826Z,10.25
2022-09-18T03:50:02.660Z,10.28
2022-09-18T03:52:34.571Z,10.26
2022-09-18T03:55:11.886Z,10.27
2022-09-18T03:57:58.441Z,10.27
2022-09-18T04:00:46.834Z,10.25
2022-09-18T04:03:18.667Z,10.25
2022-09-18T04:05:51.000Z,10.22
2022-09-18T04:08:41.397Z,10.23
2022-09-18T04:11:26.149Z,10.21
2022-09-18T04:13:54.220Z,10.21
2022-09-18T04:16:23.045Z,10.21
2022-09-18T04:18:54.784Z,10.20
2022-09-18T04:21:23.228Z,10.18
2022-09-18T04:23:52.188Z,10.17
2022-09-18T04:26:20.273Z,10.19
2022-09-18T04:28:53.060Z,10.18
2022-09-18T04:31:22.646Z,10.18
2022-09-18T04:33:50.878Z,10.20
2022-09-18T04:36:19.630Z,10.20
2022-09-18T04:38:48.122Z,10.17
2022-09-18T04:41:16.124Z,10.18
2022-09-18T04:43:44.759Z,10.18
2022-09-18T04:46:13.220Z,10.15
2022-09-18T04:48:41.142Z,10.14
2022-09-18T04:51:09.379Z,10.15
2022-09-18T04:53:47.408Z,10.17
2022-09-18T04:56:15.469Z,10.16
2022-09-18T04:58:46.645Z,10.21
2022-09-18T05:01:15.059Z,10.21
2022-09-18T05:03:43.406Z,10.20
2022-09-18T05:06:16.657Z,10.18
2022-09-18T05:08:44.483Z,10.19
2022-09-18T05:11:12.411Z,10.20
2022-09-18T05:13:40.913Z,10.20
2022-09-18T05:16:14.135Z,10.18
2022-09-18T05:18:42.689Z,10.19
2022-09-18T05:21:10.720Z,10.20
2022-09-18T05:23:38.583Z,10.20
2022-09-18T05:26:07.009Z,10.21
2022-09-18T05:28:34.976Z,10.23
2022-09-18T05:31:03.414Z,10.22
2022-09-18T05:33:41.849Z,10.23
2022-09-18T05:36:12.185Z,10.23
2022-09-18T05:38:40.505Z,10.21
2022-09-18T05:41:09.821Z,10.21
2022-09-18T05:43:38.609Z,10.15
2022-09-18T05:46:12.088Z,10.17
2022-09-18T05:48:51.585Z,10.15
2022-09-18T05:51:20.250Z,10.16
2022-09-18T05:53:48.629Z,10.16
2022-09-18T05:56:42.706Z,10.19
2022-09-18T05:59:12.305Z,10.24
2022-09-18T06:01:44.848Z,10.18
2022-09-18T06:04:22.275Z,10.19
2022-09-18T06:06:56.974Z,10.27
2022-09-18T06:09:26.191Z,10.26
2022-09-18T06:11:54.159Z,10.26
2022-09-18T06:14:23.461Z,10.31
2022-09-18T06:16:51.856Z,10.28
2022-09-18T06:19:19.805Z,10.30
2022-09-18T06:21:49.308Z,10.28
2022-09-18T06:24:19.271Z,10.28
2022-09-18T06:26:57.936Z,10.32
2022-09-18T06:29:26.728Z,10.23
2022-09-18T06:31:59.559Z,10.27
2022-09-18T06:34:29.893Z,10.24
2022-09-18T06:37:02.109Z,10.26
2022-09-18T06:39:50.205Z,10.28
2022-09-18T06:42:27.224Z,10.23
2022-09-18T06:45:21.100Z,10.26
2022-09-18T06:47:54.600Z,10.29
2022-09-18T06:50:25.115Z,10.28
2022-09-18T06:52:53.094Z,10.28
2022-09-18T06:55:21.890Z,10.35
2022-09-18T06:57:56.720Z,10.35
2022-09-18T07:00:26.627Z,10.31
2022-09-18T07:02:59.644Z,10.31
2022-09-18T07:05:46.695Z,10.33
2022-09-18T07:08:25.391Z,10.34
2022-09-18T07:11:01.398Z,10.39
2022-09-18T07:13:33.767Z,10.39
2022-09-18T07:16:01.937Z,10.38
2022-09-18T07:18:30.252Z,10.38
2022-09-18T07:21:01.833Z,10.40
2022-09-18T07:23:34.941Z,10.37
2022-09-18T07:26:05.304Z,10.42
2022-09-18T07:28:34.185Z,10.44
2022-09-18T07:31:12.171Z,10.42
2022-09-18T07:33:40.878Z,10.38
2022-09-18T07:36:09.567Z,10.46
2022-09-18T07:38:38.141Z,10.52
2022-09-18T07:41:06.848Z,10.58
2022-09-18T07:43:35.821Z,10.62
2022-09-18T07:46:04.608Z,10.58
2022-09-18T07:48:35.441Z,10.59
2022-09-18T07:51:10.579Z,10.58
2022-09-18T07:53:39.354Z,10.55
2022-09-18T07:56:10.254Z,10.53
2022-09-18T07:58:39.310Z,10.53
2022-09-18T08:01:25.863Z,10.54
2022-09-18T08:03:57.045Z,10.60
2022-09-18T08:06:37.304Z,10.68
2022-09-18T08:09:17.009Z,10.73
2022-09-18T08:12:08.547Z,10.79
2022-09-18T08:14:52.755Z,10.82
2022-09-18T08:17:43.560Z,10.87
2022-09-18T08:20:29.853Z,10.95
2022-09-18T08:23:18.068Z,11.04
2022-09-18T08:25:47.674Z,11.21
2022-09-18T08:28:16.060Z,11.31
2022-09-18T08:30:50.580Z,11.46
2022-09-18T08:33:19.561Z,11.58
2022-09-18T08:35:47.634Z,11.68
2022-09-18T08:38:26.048Z,11.72
2022-09-18T08:41:43.000Z,11.76
2022-09-18T08:44:24.383Z,11.83
2022-09-18T08:47:10.546Z,11.88
2022-09-18T08:49:52.257Z,11.91
2022-09-18T08:52:25.817Z,11.99
2022-09-18T08:55:06.291Z,12.07
2022-09-18T08:58:00.093Z,12.15
2022-09-18T09:01:01.748Z,12.21
2022-09-18T09:03:59.032Z,12.27
2022-09-18T09:06:28.459Z,12.31
2022-09-18T09:09:21.493Z,12.32
2022-09-18T09:12:11.012Z,12.38
2022-09-18T09:15:11.124Z,12.40
2022-09-18T09:18:05.055Z,12.45
2022-09-18T09:20:42.037Z,12.46
2022-09-18T09:23:26.143Z,12.46
2022-09-18T09:26:01.463Z,12.50
2022-09-18T09:28:47.508Z,12.58
2022-09-18T09:31:34.139Z,12.67
2022-09-18T09:34:41.009Z,12.76
2022-09-18T09:37:43.528Z,12.85
2022-09-18T09:40:23.311Z,12.93
2022-09-18T09:43:26.997Z,12.94
2022-09-18T09:46:02.648Z,12.89
2022-09-18T09:48:35.422Z,12.95
2022-09-18T09:51:41.549Z,12.92
2022-09-18T09:54:12.481Z,12.94
2022-09-18T09:56:45.592Z,13.00
2022-09-18T09:59:39.554Z,13.06
2022-09-18T10:02:51.776Z,13.10
2022-09-18T10:05:28.058Z,13.13
2022-09-18T10:07:58.288Z,13.15
2022-09-18T10:10:59.016Z,13.17
2022-09-18T10:13:49.307Z,13.25
2022-09-18T10:16:25.817Z,13.25
2022-09-18T10:18:54.664Z,13.26
2022-09-18T10:21:27.588Z,13.34
2022-09-18T10:24:06.750Z,13.40
2022-09-18T10:26:51.978Z,13.45
2022-09-18T10:29:35.060Z,13.52
2022-09-18T10:32:07.111Z,13.62
2022-09-18T10:34:46.172Z,13.70
2022-09-18T10:37:37.874Z,13.75
2022-09-18T10:40:30.987Z,13.91
2022-09-18T10:43:01.083Z,13.96
2022-09-18T10:45:37.004Z,14.05
2022-09-18T10:48:26.184Z,14.09
2022-09-18T10:51:02.867Z,14.00
2022-09-18T10:53:43.436Z,13.95
2022-09-18T10:56:27.091Z,13.89
2022-09-18T10:58:57.453Z,13.91
2022-09-18T11:01:25.897Z,13.90
2022-09-18T11:04:05.834Z,13.89
2022-09-18T11:06:38.634Z,13.94
2022-09-18T11:09:39.317Z,13.95
2022-09-18T11:12:24.901Z,13.88
2022-09-18T11:15:04.485Z,13.74
2022-09-18T11:17:40.017Z,13.63
2022-09-18T11:20:20.831Z,13.61
2022-09-18T11:22:56.378Z,13.60
2022-09-18T11:25:29.487Z,13.64
2022-09-18T11:28:02.706Z,13.66
2022-09-18T11:30:38.809Z,13.63
2022-09-18T11:33:41.133Z,13.62
2022-09-18T11:36:13.057Z,13.68
2022-09-18T11:38:44.909Z,13.80
2022-09-18T11:41:22.484Z,13.94
2022-09-18T11:44:02.313Z,14.07
2022-09-18T11:47:11.525Z,14.13
2022-09-18T11:49:45.436Z,14.01
2022-09-18T11:52:36.724Z,13.91
2022-09-18T11:55:26.523Z,13.80
2022-09-18T11:58:01.723Z,13.71
2022-09-18T12:00:37.627Z,13.64
2022-09-18T12:03:19.302Z,13.54
2022-09-18T12:06:08.993Z,13.49
2022-09-18T12:09:15.648Z,13.43
2022-09-18T12:11:56.683Z,13.40
2022-09-18T12:14:47.211Z,13.38
2022-09-18T12:17:40.382Z,13.42
2022-09-18T12:20:18.815Z,13.48
2022-09-18T12:22:56.847Z,13.55
2022-09-18T12:25:50.727Z,13.57
2022-09-18T12:29:13.122Z,13.60
2022-09-18T12:32:01.791Z,13.60
2022-09-18T12:34:56.202Z,13.52
2022-09-18T12:37:36.122Z,13.51
2022-09-18T12:40:31.863Z,13.48
2022-09-18T12:43:41.332Z,13.50
2022-09-18T12:46:41.685Z,13.56
2022-09-18T12:49:46.922Z,13.60
2022-09-18T12:53:00.528Z,13.65
2022-09-18T12:55:59.671Z,13.73
2022-09-18T12:58:58.949Z,13.77
2022-09-18T13:02:22.668Z,13.76
2022-09-18T13:04:56.786Z,13.71
2022-09-18T13:07:30.919Z,13.73
2022-09-18T13:10:24.847Z,13.74
2022-09-18T13:12:59.445Z,13.77
2022-09-18T13:15:33.285Z,13.81
2022-09-18T13:18:23.743Z,13.76
2022-09-18T13:20:54.326Z,13.74
2022-09-18T13:23:35.395Z,13.72
2022-09-18T13:26:06.845Z,13.78
2022-09-18T13:28:35.173Z,13.83
2022-09-18T13:31:15.657Z,13.88
2022-09-18T13:34:04.656Z,13.84
2022-09-18T13:36:34.078Z,13.78
2022-09-18T13:39:17.727Z,13.75
2022-09-18T13:41:50.898Z,13.71
2022-09-18T13:44:31.635Z,13.66
2022-09-18T13:47:09.975Z,13.57
2022-09-18T13:49:57.442Z,13.49
2022-09-18T13:52:34.439Z,13.49
2022-09-18T13:55:31.326Z,13.49
2022-09-18T13:58:33.871Z,13.45
2022-09-18T14:01:07.638Z,13.44
2022-09-18T14:03:40.305Z,13.43
2022-09-18T14:06:36.674Z,13.40
2022-09-18T14:09:26.665Z,13.35
2022-09-18T14:11:54.843Z,13.32
2022-09-18T14:14:26.260Z,13.31
2022-09-18T14:16:56.289Z,13.28
2022-09-18T14:19:32.642Z,13.28
2022-09-18T14:22:01.554Z,13.30
2022-09-18T14:24:55.209Z,13.30
2022-09-18T14:27:57.159Z,13.35
2022-09-18T14:30:30.317Z,13.41
2022-09-18T14:33:03.630Z,13.49
2022-09-18T14:35:42.064Z,13.53
2022-09-18T14:38:31.617Z,13.56
2022-09-18T14:41:19.623Z,13.58
2022-09-18T14:43:56.088Z,13.62
2022-09-18T14:46:26.015Z,13.67
2022-09-18T14:48:55.114Z,13.72
2022-09-18T14:51:25.955Z,13.75
2022-09-18T14:53:54.765Z,13.78
2022-09-18T14:56:33.286Z,13.73
2022-09-18T14:59:05.496Z,13.69
2022-09-18T15:01:36.711Z,13.67
2022-09-18T15:04:12.769Z,13.64
2022-09-18T15:06:46.393Z,13.64
2022-09-18T15:09:20.876Z,13.65
2022-09-18T15:12:02.219Z,13.65
2022-09-18T15:14:44.181Z,13.66
2022-09-18T15:17:23.809Z,13.66
2022-09-18T15:20:22.054Z,13.67
2022-09-18T15:22:51.466Z,13.65
2022-09-18T15:25:34.696Z,13.65
2022-09-18T15:28:07.007Z,13.63
2022-09-18T15:30:40.463Z,13.62
2022-09-18T15:33:19.724Z,13.58
2022-09-18T15:35:52.036Z,13.53
2022-09-18T15:38:29.686Z,13.50
2022-09-18T15:40:57.769Z,13.49
2022-09-18T15:43:28.650Z,13.45
2022-09-18T15:46:06.987Z,13.43
2022-09-18T15:48:39.648Z,13.43
2022-09-18T15:51:22.463Z,13.45
2022-09-18T15:54:05.665Z,13.47
2022-09-18T15:56:35.381Z,13.49
2022-09-18T15:59:33.156Z,13.49
2022-09-18T16:02:08.338Z,13.46
2022-09-18T16:04:36.679Z,13.41
2022-09-18T16:07:18.570Z,13.36
2022-09-18T16:09:48.226Z,13.30
2022-09-18T16:12:31.464Z,13.26
2022-09-18T16:15:19.080Z,13.19
2022-09-18T16:17:46.998Z,13.14
2022-09-18T16:20:26.232Z,13.12
2022-09-18T16:23:03.019Z,13.04
2022-09-18T16:25:32.261Z,13.00
2022-09-18T16:28:02.093Z,12.93
2022-09-18T16:30:30.007Z,12.88
2022-09-18T16:33:13.721Z,12.82
2022-09-18T16:35:41.690Z,12.75
2022-09-18T16:38:09.763Z,12.71
2022-09-18T16:40:37.877Z,12.66
2022-09-18T16:43:05.766Z,12.61
2022-09-18T16:45:33.772Z,12.58
2022-09-18T16:48:01.698Z,12.52
2022-09-18T16:50:29.715Z,12.48
2022-09-18T16:53:01.421Z,12.45
2022-09-18T16:55:31.071Z,12.47
2022-09-18T16:57:59.653Z,12.47
2022-09-18T17:00:27.624Z,12.48
2022-09-18T17:02:57.815Z,12.47
2022-09-18T17:05:25.903Z,12.45
2022-09-18T17:07:53.873Z,12.40
2022-09-18T17:10:21.736Z,12.39
2022-09-18T17:12:49.647Z,12.36
2022-09-18T17:15:17.602Z,12.32
2022-09-18T17:17:45.753Z,12.28
2022-09-18T17:20:17.881Z,12.24
2022-09-18T17:22:46.565Z,12.21
2022-09-18T17:25:15.160Z,12.17
2022-09-18T17:27:43.825Z,12.16
2022-09-18T17:30:12.763Z,12.16
2022-09-18T17:32:40.765Z,12.16
2022-09-18T17:35:08.889Z,12.16
2022-09-18T17:37:36.865Z,12.16
2022-09-18T17:40:05.678Z,12.19
2022-09-18T17:42:34.043Z,12.20
2022-09-18T17:45:02.011Z,12.22
2022-09-18T17:47:29.951Z,12.24
2022-09-18T17:49:58.257Z,12.27
2022-09-18T17:52:26.260Z,12.30
2022-09-18T17:54:54.149Z,12.33
2022-09-18T17:57:22.161Z,12.33
2022-09-18T17:59:50.026Z,12.30
2022-09-18T18:02:18.192Z,12.29
2022-09-18T18:04:46.385Z,12.27
2022-09-18T18:07:14.834Z,12.23
2022-09-18T18:09:42.833Z,12.18
2022-09-18T18:12:11.084Z,12.12
2022-09-18T18:14:38.916Z,12.11
2022-09-18T18:17:07.250Z,12.08
2022-09-18T18:19:35.174Z,12.00
2022-09-18T18:22:03.029Z,11.96
2022-09-18T18:24:31.332Z,11.89
2022-09-18T18:26:59.508Z,11.82
2022-09-18T18:29:27.607Z,11.73
2022-09-18T18:31:55.640Z,11.69
2022-09-18T18:34:25.421Z,11.65
2022-09-18T18:36:53.349Z,11.59
2022-09-18T18:39:21.314Z,11.56
2022-09-18T18:41:49.891Z,11.57
2022-09-18T18:44:18.487Z,11.57
2022-09-18T18:46:46.570Z,11.50
2022-09-18T18:49:15.633Z,11.47
2022-09-18T18:51:47.941Z,11.44
2022-09-18T18:54:18.380Z,11.42
2022-09-18T18:56:47.237Z,11.37
2022-09-18T18:59:17.691Z,11.32
2022-09-18T19:01:47.579Z,11.26
2022-09-18T19:04:19.294Z,11.22
2022-09-18T19:06:49.541Z,11.15
2022-09-18T19:09:28.538Z,11.08
2022-09-18T19:11:57.551Z,11.02
2022-09-18T19:14:31.775Z,10.99
2022-09-18T19:17:00.856Z,10.95
2022-09-18T19:19:29.485Z,10.94
2022-09-18T19:22:00.370Z,10.92
2022-09-18T19:24:28.622Z,10.90
2022-09-18T19:26:57.868Z,10.89
2022-09-18T19:29:25.977Z,10.88
2022-09-18T19:31:53.914Z,10.86
2022-09-18T19:34:22.512Z,10.86
2022-09-18T19:36:52.020Z,10.82
2022-09-18T19:39:22.633Z,10.80
2022-09-18T19:41:59.191Z,10.79
2022-09-18T19:44:38.683Z,10.73
2022-09-18T19:47:19.614Z,10.69
2022-09-18T19:49:47.507Z,10.63
2022-09-18T19:52:18.490Z,10.59
2022-09-18T19:54:46.931Z,10.56
2022-09-18T19:57:15.880Z,10.53
2022-09-18T19:59:44.571Z,10.51
2022-09-18T20:02:20.014Z,10.49
2022-09-18T20:04:48.000Z,10.52
2022-09-18T20:07:15.973Z,10.54
2022-09-18T20:09:43.926Z,10.55
2022-09-18T20:12:12.800Z,10.57
2022-09-18T20:14:40.635Z,10.56
2022-09-18T20:17:09.998Z,10.55
2022-09-18T20:19:37.992Z,10.51
2022-09-18T20:22:07.148Z,10.46
2022-09-18T20:24:35.145Z,10.42
2022-09-18T20:27:03.292Z,10.33
2022-09-18T20:29:31.425Z,10.22
2022-09-18T20:31:59.481Z,10.16
2022-09-18T20:34:27.413Z,10.07
2022-09-18T20:36:55.272Z,10.04
2022-09-18T20:39:23.238Z,10.03
2022-09-18T20:41:51.271Z,9.97
2022-09-18T20:44:19.339Z,9.93
2022-09-18T20:46:47.275Z,9.91
2022-09-18T20:49:17.589Z,9.92
2022-09-18T20:51:46.187Z,9.86
2022-09-18T20:54:15.378Z,9.81
2022-09-18T20:56:44.694Z,9.79
2022-09-18T20:59:31.665Z,9.76
2022-09-18T21:01:59.575Z,9.74
2022-09-18T21:04:27.454Z,9.70
2022-09-18T21:06:58.934Z,9.67
2022-09-18T21:09:28.995Z,9.63
2022-09-18T21:11:57.163Z,9.63
2022-09-18T21:14:27.430Z,9.62
2022-09-18T21:16:56.065Z,9.62
2022-09-18T21:19:26.371Z,9.60
2022-09-18T21:21:54.423Z,9.60
2022-09-18T21:24:22.496Z,9.59
2022-09-18T21:26:50.894Z,9.57
2022-09-18T21:29:27.114Z,9.55
2022-09-18T21:32:02.245Z,9.53
2022-09-18T21:34:33.513Z,9.51
2022-09-18T21:37:08.271Z,9.52
2022-09-18T21:39:37.255Z,9.52
2022-09-18T21:42:07.343Z,9.52
2022-09-18T21:44:37.681Z,9.50
2022-09-18T21:47:08.029Z,9.50
2022-09-18T21:49:35.960Z,9.50
2022-09-18T21:52:07.349Z,9.50
2022-09-18T21:54:35.716Z,9.52
2022-09-18T21:57:04.836Z,9.54
2022-09-18T21:59:36.677Z,9.56
2022-09-18T22:02:05.745Z,9.55
2022-09-18T22:04:34.144Z,9.56
2022-09-18T22:07:02.602Z,9.58
2022-09-18T22:09:34.559Z,9.57
2022-09-18T22:12:03.040Z,9.54
2022-09-18T22:14:33.420Z,9.54
2022-09-18T22:17:03.817Z,9.53
2022-09-18T22:19:33.454Z,9.57
2022-09-18T22:22:01.882Z,9.61
2022-09-18T22:24:30.386Z,9.64
2022-09-18T22:27:02.668Z,9.68
2022-09-18T22:29:32.673Z,9.68
2022-09-18T22:32:01.594Z,9.69
2022-09-18T22:34:32.286Z,9.68
2022-09-18T22:37:01.288Z,9.64
2022-09-18T22:39:29.591Z,9.60
2022-09-18T22:41:58.052Z,9.59
2022-09-18T22:44:26.498Z,9.57
2022-09-18T22:46:54.462Z,9.55
2022-09-18T22:49:24.109Z,9.55
2022-09-18T22:51:52.585Z,9.52
2022-09-18T22:54:27.042Z,9.53
2022-09-18T22:56:56.415Z,9.55
2022-09-18T22:59:27.243Z,9.60
2022-09-18T23:01:59.331Z,9.61
2022-09-18T23:04:29.906Z,9.60
2022-09-18T23:06:59.311Z,9.59
2022-09-18T23:09:28.152Z,9.59
2022-09-18T23:11:57.949Z,9.60
2022-09-18T23:14:28.579Z,9.57
2022-09-18T23:16:58.483Z,9.56
2022-09-18T23:19:31.927Z,9.52
2022-09-18T23:22:00.461Z,9.52
2022-09-18T23:24:28.684Z,9.54
2022-09-18T23:26:58.454Z,9.57
2022-09-18T23:29:28.456Z,9.62
2022-09-18T23:31:59.458Z,9.66
2022-09-18T23:34:30.775Z,9.69
2022-09-18T23:36:59.844Z,9.70
2022-09-18T23:39:30.980Z,9.73
2022-09-18T23:42:01.529Z,9.72
2022-09-18T23:44:31.371Z,9.74
2022-09-18T23:47:00.341Z,9.74
2022-09-18T23:49:29.788Z,9.77
2022-09-18T23:51:59.576Z,9.75
2022-09-18T23:54:30.031Z,9.76
2022-09-18T23:56:58.335Z,9.80
2022-09-18T23:59:27.133Z,9.81
